sensor_id;sensor_type;location;lat;lon;timestamp;pressure;altitude;pressure_sealevel;temperature;humidity
50854;BME280;44154;45.506;-122.806;2022-10-16T00:01:23;100157.81;;;27.35;41.31
50854;BME280;44154;45.506;-122.806;2022-10-16T00:03:51;100068.78;;;26.78;41.18
50854;BME280;44154;45.506;-122.806;2022-10-16T00:06:19;100158.38;;;27.38;40.87
50854;BME280;44154;45.506;-122.806;2022-10-16T00:08:46;100158.38;;;27.38;41.25
50854;BME280;44154;45.506;-122.806;2022-10-16T00:11:16;100152.31;;;27.35;41.39
50854;BME280;44154;45.506;-122.806;2022-10-16T00:13:43;100162.75;;;27.39;40.98
50854;BME280;44154;45.506;-122.806;2022-10-16T00:16:11;100142.47;;;27.34;40.93
50854;BME280;44154;45.506;-122.806;2022-10-16T00:18:38;100153.38;;;27.40;41.27
50854;BME280;44154;45.506;-122.806;2022-10-16T00:21:11;100142.19;;;27.36;40.88
50854;BME280;44154;45.506;-122.806;2022-10-16T00:23:37;100147.91;;;27.40;40.95
50854;BME280;44154;45.506;-122.806;2022-10-16T00:26:07;100139.53;;;27.50;41.13
50854;BME280;44154;45.506;-122.806;2022-10-16T00:28:35;100157.16;;;27.49;41.25
50854;BME280;44154;45.506;-122.806;2022-10-16T00:31:06;100141.56;;;27.44;41.18
50854;BME280;44154;45.506;-122.806;2022-10-16T00:33:33;100132.53;;;27.39;41.14
50854;BME280;44154;45.506;-122.806;2022-10-16T00:36:00;100158.56;;;27.46;41.17
50854;BME280;44154;45.506;-122.806;2022-10-16T00:38:26;100142.88;;;27.47;40.89
50854;BME280;44154;45.506;-122.806;2022-10-16T00:40:53;100140.13;;;27.47;41.17
50854;BME280;44154;45.506;-122.806;2022-10-16T00:43:45;100151.41;;;27.45;41.19
50854;BME280;44154;45.506;-122.806;2022-10-16T00:51:37;100156.88;;;27.50;41.05
50854;BME280;44154;45.506;-122.806;2022-10-16T00:54:08;100138.22;;;27.47;41.01
50854;BME280;44154;45.506;-122.806;2022-10-16T00:56:35;100142.03;;;27.51;40.80
50854;BME280;44154;45.506;-122.806;2022-10-16T00:59:04;100126.75;;;27.40;40.94
50854;BME280;44154;45.506;-122.806;2022-10-16T01:01:32;100144.78;;;27.51;40.84
50854;BME280;44154;45.506;-122.806;2022-10-16T01:03:58;100147.22;;;27.53;40.71
50854;BME280;44154;45.506;-122.806;2022-10-16T01:15:26;100144.69;;;27.57;40.81
50854;BME280;44154;45.506;-122.806;2022-10-16T01:18:21;100144.69;;;27.57;40.93
50854;BME280;44154;45.506;-122.806;2022-10-16T01:21:16;100140.00;;;27.57;40.84
50854;BME280;44154;45.506;-122.806;2022-10-16T01:24:06;100143.59;;;27.58;40.69
50854;BME280;44154;45.506;-122.806;2022-10-16T01:29:29;100142.75;;;27.57;40.76
50854;BME280;44154;45.506;-122.806;2022-10-16T01:32:01;100137.81;;;27.59;40.85
50854;BME280;44154;45.506;-122.806;2022-10-16T01:34:35;100142.75;;;27.57;40.71
50854;BME280;44154;45.506;-122.806;2022-10-16T01:37:07;100111.03;;;27.46;40.62
50854;BME280;44154;45.506;-122.806;2022-10-16T01:39:38;100153.13;;;27.65;40.88
50854;BME280;44154;45.506;-122.806;2022-10-16T01:42:20;100135.94;;;27.55;40.83
50854;BME280;44154;45.506;-122.806;2022-10-16T01:44:49;100146.88;;;27.60;40.67
50854;BME280;44154;45.506;-122.806;2022-10-16T01:47:17;100159.50;;;27.61;40.54
50854;BME280;44154;45.506;-122.806;2022-10-16T01:49:47;100160.88;;;27.63;40.96
50854;BME280;44154;45.506;-122.806;2022-10-16T01:52:17;100172.97;;;27.62;40.80
50854;BME280;44154;45.506;-122.806;2022-10-16T01:54:47;100158.69;;;27.60;40.58
50854;BME280;44154;45.506;-122.806;2022-10-16T01:57:16;100172.97;;;27.62;40.87
50854;BME280;44154;45.506;-122.806;2022-10-16T01:59:47;100161.19;;;27.57;40.56
50854;BME280;44154;45.506;-122.806;2022-10-16T02:02:15;100162.78;;;27.63;40.65
50854;BME280;44154;45.506;-122.806;2022-10-16T02:07:37;100173.47;;;27.64;40.88
50854;BME280;44154;45.506;-122.806;2022-10-16T02:10:04;100169.91;;;27.64;40.88
50854;BME280;44154;45.506;-122.806;2022-10-16T02:12:34;100168.84;;;27.60;40.50
50854;BME280;44154;45.506;-122.806;2022-10-16T02:15:02;100164.41;;;27.64;40.62
50854;BME280;44154;45.506;-122.806;2022-10-16T02:17:29;100171.56;;;27.65;40.68
50854;BME280;44154;45.506;-122.806;2022-10-16T02:19:56;100143.75;;;27.42;40.42
50854;BME280;44154;45.506;-122.806;2022-10-16T02:22:35;100149.03;;;27.39;40.67
50854;BME280;44154;45.506;-122.806;2022-10-16T02:25:22;100177.88;;;27.65;40.47
50854;BME280;44154;45.506;-122.806;2022-10-16T02:30:49;100163.25;;;27.46;40.68
50854;BME280;44154;45.506;-122.806;2022-10-16T02:33:17;100168.97;;;27.49;40.61
50854;BME280;44154;45.506;-122.806;2022-10-16T02:35:46;100202.09;;;27.63;40.26
50854;BME280;44154;45.506;-122.806;2022-10-16T02:38:15;100110.47;;;27.14;40.69
50854;BME280;44154;45.506;-122.806;2022-10-16T02:40:42;100186.41;;;27.64;40.25
50854;BME280;44154;45.506;-122.806;2022-10-16T02:43:08;100188.38;;;27.58;40.42
50854;BME280;44154;45.506;-122.806;2022-10-16T02:45:35;100139.50;;;27.26;40.26
50854;BME280;44154;45.506;-122.806;2022-10-16T02:48:02;100207.00;;;27.66;40.43
50854;BME280;44154;45.506;-122.806;2022-10-16T02:50:28;100193.31;;;27.61;40.67
50854;BME280;44154;45.506;-122.806;2022-10-16T02:52:54;100199.88;;;27.65;40.38
50854;BME280;44154;45.506;-122.806;2022-10-16T02:55:20;100203.44;;;27.66;40.40
50854;BME280;44154;45.506;-122.806;2022-10-16T02:57:46;100182.13;;;27.52;40.25
50854;BME280;44154;45.506;-122.806;2022-10-16T03:00:14;100196.00;;;27.66;40.51
50854;BME280;44154;45.506;-122.806;2022-10-16T03:02:41;100204.25;;;27.66;40.31
50854;BME280;44154;45.506;-122.806;2022-10-16T03:05:07;100188.94;;;27.60;40.12
50854;BME280;44154;45.506;-122.806;2022-10-16T03:07:34;100205.91;;;27.67;40.22
50854;BME280;44154;45.506;-122.806;2022-10-16T03:10:00;100204.25;;;27.66;40.35
50854;BME280;44154;45.506;-122.806;2022-10-16T03:12:27;100203.72;;;27.64;40.03
50854;BME280;44154;45.506;-122.806;2022-10-16T03:14:54;100213.31;;;27.67;40.11
50854;BME280;44154;45.506;-122.806;2022-10-16T03:17:20;100193.66;;;27.55;40.70
50854;BME280;44154;45.506;-122.806;2022-10-16T03:19:46;100218.81;;;27.67;40.09
50854;BME280;44154;45.506;-122.806;2022-10-16T03:22:13;100214.97;;;27.68;40.41
50854;BME280;44154;45.506;-122.806;2022-10-16T03:24:39;100213.59;;;27.65;39.91
50854;BME280;44154;45.506;-122.806;2022-10-16T03:27:05;100186.03;;;27.46;40.26
50854;BME280;44154;45.506;-122.806;2022-10-16T03:29:31;100214.16;;;27.67;40.14
50854;BME280;44154;45.506;-122.806;2022-10-16T03:31:59;100205.97;;;27.57;40.28
50854;BME280;44154;45.506;-122.806;2022-10-16T03:34:25;100216.91;;;27.67;40.36
50854;BME280;44154;45.506;-122.806;2022-10-16T03:36:52;100224.03;;;27.68;39.94
50854;BME280;44154;45.506;-122.806;2022-10-16T03:39:18;100182.78;;;27.44;40.32
50854;BME280;44154;45.506;-122.806;2022-10-16T03:41:44;100203.50;;;27.61;40.20
50854;BME280;44154;45.506;-122.806;2022-10-16T03:44:12;100213.03;;;27.68;40.20
50854;BME280;44154;45.506;-122.806;2022-10-16T03:46:38;100207.53;;;27.68;39.80
50854;BME280;44154;45.506;-122.806;2022-10-16T03:49:05;100196.59;;;27.63;39.93
50854;BME280;44154;45.506;-122.806;2022-10-16T03:51:31;100221.28;;;27.68;40.21
50854;BME280;44154;45.506;-122.806;2022-10-16T03:53:57;100222.09;;;27.69;40.09
50854;BME280;44154;45.506;-122.806;2022-10-16T03:56:23;100226.78;;;27.68;40.21
50854;BME280;44154;45.506;-122.806;2022-10-16T03:58:49;100212.53;;;27.61;39.99
50854;BME280;44154;45.506;-122.806;2022-10-16T04:01:16;100195.38;;;27.45;40.02
50854;BME280;44154;45.506;-122.806;2022-10-16T04:03:42;100238.59;;;27.69;39.94
50854;BME280;44154;45.506;-122.806;2022-10-16T04:06:08;100170.81;;;27.25;39.95
50854;BME280;44154;45.506;-122.806;2022-10-16T04:08:34;100235.56;;;27.71;40.12
50854;BME280;44154;45.506;-122.806;2022-10-16T04:11:02;100234.50;;;27.66;40.16
50854;BME280;44154;45.506;-122.806;2022-10-16T04:13:29;100243.25;;;27.68;39.83
50854;BME280;44154;45.506;-122.806;2022-10-16T04:15:55;100220.56;;;27.58;40.02
50854;BME280;44154;45.506;-122.806;2022-10-16T04:18:22;100240.50;;;27.68;39.89
50854;BME280;44154;45.506;-122.806;2022-10-16T04:20:49;100235.03;;;27.68;39.52
50854;BME280;44154;45.506;-122.806;2022-10-16T04:23:15;100243.25;;;27.68;39.83
50854;BME280;44154;45.506;-122.806;2022-10-16T04:25:41;100237.78;;;27.68;39.73
50854;BME280;44154;45.506;-122.806;2022-10-16T04:28:07;100232.34;;;27.63;39.67
50854;BME280;44154;45.506;-122.806;2022-10-16T04:30:33;100195.19;;;27.37;39.65
50854;BME280;44154;45.506;-122.806;2022-10-16T04:33:00;100237.78;;;27.68;39.53
50854;BME280;44154;45.506;-122.806;2022-10-16T04:35:26;100230.41;;;27.64;39.71
50854;BME280;44154;45.506;-122.806;2022-10-16T04:37:52;100260.59;;;27.69;39.92
50854;BME280;44154;45.506;-122.806;2022-10-16T04:40:18;100248.75;;;27.68;39.50
50854;BME280;44154;45.506;-122.806;2022-10-16T04:42:45;100249.59;;;27.69;39.66
50854;BME280;44154;45.506;-122.806;2022-10-16T04:45:11;100248.75;;;27.68;39.86
50854;BME280;44154;45.506;-122.806;2022-10-16T04:47:37;100228.53;;;27.59;39.50
50854;BME280;44154;45.506;-122.806;2022-10-16T04:50:04;100247.66;;;27.69;39.41
50854;BME280;44154;45.506;-122.806;2022-10-16T04:52:30;100253.16;;;27.69;39.76
50854;BME280;44154;45.506;-122.806;2022-10-16T04:54:57;100260.59;;;27.69;39.20
50854;BME280;44154;45.506;-122.806;2022-10-16T04:57:27;100259.75;;;27.68;39.61
50854;BME280;44154;45.506;-122.806;2022-10-16T04:59:54;100268.84;;;27.69;39.53
50854;BME280;44154;45.506;-122.806;2022-10-16T05:02:20;100182.78;;;27.10;39.65
50854;BME280;44154;45.506;-122.806;2022-10-16T05:04:46;100247.56;;;27.50;39.74
50854;BME280;44154;45.506;-122.806;2022-10-16T05:07:12;100275.44;;;27.68;39.76
50854;BME280;44154;45.506;-122.806;2022-10-16T05:09:39;100273.78;;;27.67;39.48
50854;BME280;44154;45.506;-122.806;2022-10-16T05:12:05;100272.69;;;27.68;39.62
50854;BME280;44154;45.506;-122.806;2022-10-16T05:14:31;100281.75;;;27.68;39.49
50854;BME280;44154;45.506;-122.806;2022-10-16T05:16:57;100284.50;;;27.68;39.28
50854;BME280;44154;45.506;-122.806;2022-10-16T05:19:25;100268.09;;;27.58;39.80
50854;BME280;44154;45.506;-122.806;2022-10-16T05:21:51;100271.34;;;27.65;39.18
50854;BME280;44154;45.506;-122.806;2022-10-16T05:24:17;100279.28;;;27.67;39.31
50854;BME280;44154;45.506;-122.806;2022-10-16T05:26:43;100269.16;;;27.62;39.27
50854;BME280;44154;45.506;-122.806;2022-10-16T05:29:09;100265.94;;;27.55;39.71
50854;BME280;44154;45.506;-122.806;2022-10-16T05:31:36;100268.69;;;27.55;39.34
50854;BME280;44154;45.506;-122.806;2022-10-16T05:34:02;100287.84;;;27.65;39.27
50854;BME280;44154;45.506;-122.806;2022-10-16T05:36:28;100194.84;;;27.09;39.29
50854;BME280;44154;45.506;-122.806;2022-10-16T05:38:55;100285.09;;;27.65;39.38
50854;BME280;44154;45.506;-122.806;2022-10-16T05:41:21;100281.81;;;27.63;39.58
50854;BME280;44154;45.506;-122.806;2022-10-16T05:43:49;100282.34;;;27.65;39.55
50854;BME280;44154;45.506;-122.806;2022-10-16T05:46:16;100282.34;;;27.65;39.49
50854;BME280;44154;45.506;-122.806;2022-10-16T05:48:42;100290.59;;;27.65;39.34
50854;BME280;44154;45.506;-122.806;2022-10-16T05:51:10;100286.72;;;27.66;39.62
50854;BME280;44154;45.506;-122.806;2022-10-16T05:53:38;100284.28;;;27.65;39.22
50854;BME280;44154;45.506;-122.806;2022-10-16T05:56:05;100259.94;;;27.48;39.55
50854;BME280;44154;45.506;-122.806;2022-10-16T05:58:34;100286.19;;;27.64;39.67
50854;BME280;44154;45.506;-122.806;2022-10-16T06:01:04;100292.81;;;27.63;39.50
50854;BME280;44154;45.506;-122.806;2022-10-16T06:03:30;100292.53;;;27.65;39.47
50854;BME280;44154;45.506;-122.806;2022-10-16T06:05:56;100282.44;;;27.55;39.49
50854;BME280;44154;45.506;-122.806;2022-10-16T06:08:23;100268.22;;;27.43;39.26
50854;BME280;44154;45.506;-122.806;2022-10-16T06:11:00;100294.72;;;27.63;39.19
50854;BME280;44154;45.506;-122.806;2022-10-16T06:13:27;100289.22;;;27.63;39.51
50854;BME280;44154;45.506;-122.806;2022-10-16T06:15:56;100289.81;;;27.60;39.08
50854;BME280;44154;45.506;-122.806;2022-10-16T06:18:22;100287.31;;;27.63;39.24
50854;BME280;44154;45.506;-122.806;2022-10-16T06:20:49;100290.88;;;27.64;39.51
50854;BME280;44154;45.506;-122.806;2022-10-16T06:23:15;100291.16;;;27.62;39.64
50854;BME280;44154;45.506;-122.806;2022-10-16T06:25:41;100289.81;;;27.60;39.54
50854;BME280;44154;45.506;-122.806;2022-10-16T06:28:07;100296.13;;;27.60;39.18
50854;BME280;44154;45.506;-122.806;2022-10-16T06:30:33;100269.28;;;27.47;39.16
50854;BME280;44154;45.506;-122.806;2022-10-16T06:32:59;100271.47;;;27.50;39.21
50854;BME280;44154;45.506;-122.806;2022-10-16T06:35:25;100285.97;;;27.61;39.51
50854;BME280;44154;45.506;-122.806;2022-10-16T06:37:53;100285.16;;;27.60;39.48
50854;BME280;44154;45.506;-122.806;2022-10-16T06:40:19;100286.53;;;27.58;39.09
50854;BME280;44154;45.506;-122.806;2022-10-16T06:42:45;100267.69;;;27.46;39.42
50854;BME280;44154;45.506;-122.806;2022-10-16T06:45:11;100287.06;;;27.60;39.56
50854;BME280;44154;45.506;-122.806;2022-10-16T06:47:38;100289.00;;;27.59;39.54
50854;BME280;44154;45.506;-122.806;2022-10-16T06:50:04;100290.66;;;27.60;39.11
50854;BME280;44154;45.506;-122.806;2022-10-16T06:52:33;100301.63;;;27.60;39.41
50854;BME280;44154;45.506;-122.806;2022-10-16T06:54:59;100277.50;;;27.52;39.26
50854;BME280;44154;45.506;-122.806;2022-10-16T06:57:25;100270.72;;;27.44;39.08
50854;BME280;44154;45.506;-122.806;2022-10-16T06:59:52;100163.75;;;26.79;39.24
50854;BME280;44154;45.506;-122.806;2022-10-16T07:02:18;100290.09;;;27.58;39.08
50854;BME280;44154;45.506;-122.806;2022-10-16T07:04:44;100289.56;;;27.56;39.28
50854;BME280;44154;45.506;-122.806;2022-10-16T07:07:10;100296.69;;;27.57;39.18
50854;BME280;44154;45.506;-122.806;2022-10-16T07:09:36;100266.59;;;27.42;39.03
50854;BME280;44154;45.506;-122.806;2022-10-16T07:12:03;100295.59;;;27.58;39.24
50854;BME280;44154;45.506;-122.806;2022-10-16T07:14:29;100291.19;;;27.57;39.09
50854;BME280;44154;45.506;-122.806;2022-10-16T07:16:55;100289.59;;;27.51;39.08
50854;BME280;44154;45.506;-122.806;2022-10-16T07:19:21;100298.63;;;27.57;39.48
50854;BME280;44154;45.506;-122.806;2022-10-16T07:21:48;100305.22;;;27.56;39.00
50854;BME280;44154;45.506;-122.806;2022-10-16T07:24:15;100298.13;;;27.49;39.03
50854;BME280;44154;45.506;-122.806;2022-10-16T07:26:43;100307.16;;;27.55;39.42
50854;BME280;44154;45.506;-122.806;2022-10-16T07:29:18;100301.38;;;27.57;39.07
50854;BME280;44154;45.506;-122.806;2022-10-16T07:31:45;100312.66;;;27.55;39.00
50854;BME280;44154;45.506;-122.806;2022-10-16T07:34:14;100314.59;;;27.55;39.32
50854;BME280;44154;45.506;-122.806;2022-10-16T07:36:40;100313.47;;;27.56;39.26
50854;BME280;44154;45.506;-122.806;2022-10-16T07:39:07;100322.00;;;27.54;39.19
50854;BME280;44154;45.506;-122.806;2022-10-16T07:41:34;100321.19;;;27.54;39.20
50854;BME280;44154;45.506;-122.806;2022-10-16T07:44:02;100315.69;;;27.54;39.01
50854;BME280;44154;45.506;-122.806;2022-10-16T07:46:29;100327.50;;;27.54;39.20
50854;BME280;44154;45.506;-122.806;2022-10-16T07:48:55;100256.38;;;27.08;39.42
50854;BME280;44154;45.506;-122.806;2022-10-16T07:51:23;100234.75;;;27.01;39.20
50854;BME280;44154;45.506;-122.806;2022-10-16T07:53:50;100316.00;;;27.52;39.37
50854;BME280;44154;45.506;-122.806;2022-10-16T07:56:17;100328.63;;;27.53;39.41
50854;BME280;44154;45.506;-122.806;2022-10-16T07:58:45;100302.34;;;27.37;39.04
50854;BME280;44154;45.506;-122.806;2022-10-16T08:01:13;100326.97;;;27.52;39.54
50854;BME280;44154;45.506;-122.806;2022-10-16T08:03:44;100297.41;;;27.33;39.12
50854;BME280;44154;45.506;-122.806;2022-10-16T08:06:11;100320.69;;;27.51;39.51
50854;BME280;44154;45.506;-122.806;2022-10-16T08:08:37;100317.16;;;27.46;39.47
50854;BME280;44154;45.506;-122.806;2022-10-16T08:11:03;100325.34;;;27.51;39.26
50854;BME280;44154;45.506;-122.806;2022-10-16T08:13:30;100332.78;;;27.50;39.14
50854;BME280;44154;45.506;-122.806;2022-10-16T08:15:56;100284.31;;;27.20;39.17
50854;BME280;44154;45.506;-122.806;2022-10-16T08:18:23;100320.13;;;27.49;38.99
50854;BME280;44154;45.506;-122.806;2022-10-16T08:20:55;100317.38;;;27.49;38.95
50854;BME280;44154;45.506;-122.806;2022-10-16T08:23:22;100254.72;;;27.07;39.07
50854;BME280;44154;45.506;-122.806;2022-10-16T08:25:48;100322.06;;;27.49;39.17
50854;BME280;44154;45.506;-122.806;2022-10-16T08:28:14;100246.56;;;26.96;39.01
50854;BME280;44154;45.506;-122.806;2022-10-16T08:30:42;100321.22;;;27.48;39.21
50854;BME280;44154;45.506;-122.806;2022-10-16T08:33:08;100323.97;;;27.48;39.57
50854;BME280;44154;45.506;-122.806;2022-10-16T08:35:34;100318.75;;;27.47;39.51
50854;BME280;44154;45.506;-122.806;2022-10-16T08:38:03;100318.75;;;27.47;39.38
50854;BME280;44154;45.506;-122.806;2022-10-16T08:40:31;100318.75;;;27.47;39.31
50854;BME280;44154;45.506;-122.806;2022-10-16T08:48:49;100322.66;;;27.41;39.01
50854;BME280;44154;45.506;-122.806;2022-10-16T08:51:29;100321.81;;;27.45;39.49
50854;BME280;44154;45.506;-122.806;2022-10-16T08:54:03;100323.47;;;27.41;39.35
50854;BME280;44154;45.506;-122.806;2022-10-16T08:56:30;100322.09;;;27.44;39.26
50854;BME280;44154;45.506;-122.806;2022-10-16T08:58:58;100322.69;;;27.35;39.37
50854;BME280;44154;45.506;-122.806;2022-10-16T09:01:50;100305.44;;;27.25;39.18
50854;BME280;44154;45.506;-122.806;2022-10-16T09:06:53;100306.81;;;27.22;39.24
50854;BME280;44154;45.506;-122.806;2022-10-16T09:25:31;100329.84;;;27.37;39.43
50854;BME280;44154;45.506;-122.806;2022-10-16T09:27:58;100321.06;;;27.34;39.52
50854;BME280;44154;45.506;-122.806;2022-10-16T09:30:27;100300.81;;;27.15;39.03
50854;BME280;44154;45.506;-122.806;2022-10-16T09:32:57;100332.06;;;27.34;39.25
50854;BME280;44154;45.506;-122.806;2022-10-16T09:38:09;100327.09;;;27.31;
50854;BME280;44154;45.506;-122.806;2022-10-16T09:40:46;100337.56;;;27.34;39.29
50854;BME280;44154;45.506;-122.806;2022-10-16T09:43:20;100336.72;;;27.34;39.05
50854;BME280;44154;45.506;-122.806;2022-10-16T09:48:21;100337.81;;;27.33;39.03
50854;BME280;44154;45.506;-122.806;2022-10-16T09:51:02;100306.81;;;27.22;39.30
50854;BME280;44154;45.506;-122.806;2022-10-16T09:53:46;100325.47;;;27.30;39.11
50854;BME280;44154;45.506;-122.806;2022-10-16T09:56:38;100330.94;;;27.30;39.29
50854;BME280;44154;45.506;-122.806;2022-10-16T10:01:40;100330.94;;;27.30;38.98
50854;BME280;44154;45.506;-122.806;2022-10-16T10:04:07;100241.50;;;26.74;39.01
50854;BME280;44154;45.506;-122.806;2022-10-16T10:06:43;100326.03;;;27.27;39.20
50854;BME280;44154;45.506;-122.806;2022-10-16T10:11:55;100324.38;;;27.26;39.11
50854;BME280;44154;45.506;-122.806;2022-10-16T10:19:51;100297.00;;;27.11;39.00
50854;BME280;44154;45.506;-122.806;2022-10-16T10:38:34;100325.53;;;27.20;39.16
50854;BME280;44154;45.506;-122.806;2022-10-16T10:41:34;100328.22;;;27.25;38.94
50854;BME280;44154;45.506;-122.806;2022-10-16T10:47:12;100303.06;;;27.08;38.76
50854;BME280;44154;45.506;-122.806;2022-10-16T10:53:04;100327.44;;;27.20;39.11
50854;BME280;44154;45.506;-122.806;2022-10-16T10:55:54;100324.97;;;27.18;39.10
50854;BME280;44154;45.506;-122.806;2022-10-16T11:01:17;100316.22;;;27.16;39.32
50854;BME280;44154;45.506;-122.806;2022-10-16T11:07:05;100323.06;;;27.18;39.03
50854;BME280;44154;45.506;-122.806;2022-10-16T11:09:46;100303.34;;;27.11;38.73
50854;BME280;44154;45.506;-122.806;2022-10-16T11:12:34;100320.34;;;27.13;38.91
50854;BME280;44154;45.506;-122.806;2022-10-16T11:15:30;100319.53;;;27.13;38.95
50854;BME280;44154;45.506;-122.806;2022-10-16T11:18:07;100319.53;;;27.13;38.83
50854;BME280;44154;45.506;-122.806;2022-10-16T11:20:40;100311.28;;;27.13;39.21
50854;BME280;44154;45.506;-122.806;2022-10-16T11:25:55;100316.22;;;27.11;38.93
50854;BME280;44154;45.506;-122.806;2022-10-16T11:28:38;100316.22;;;27.11;38.95
50854;BME280;44154;45.506;-122.806;2022-10-16T11:31:16;100315.41;;;27.10;39.04
50854;BME280;44154;45.506;-122.806;2022-10-16T11:33:59;100270.81;;;26.84;39.27
50854;BME280;44154;45.506;-122.806;2022-10-16T11:36:39;100224.81;;;26.55;39.09
50854;BME280;44154;45.506;-122.806;2022-10-16T11:41:47;100274.94;;;26.81;39.14
50854;BME280;44154;45.506;-122.806;2022-10-16T11:44:20;100309.66;;;27.07;39.04
50854;BME280;44154;45.506;-122.806;2022-10-16T11:47:09;100322.88;;;27.05;38.96
50854;BME280;44154;45.506;-122.806;2022-10-16T11:49:39;100313.53;;;27.06;38.90
50854;BME280;44154;45.506;-122.806;2022-10-16T11:57:32;100328.34;;;27.05;39.15
50854;BME280;44154;45.506;-122.806;2022-10-16T12:02:53;100322.88;;;27.05;39.18
50854;BME280;44154;45.506;-122.806;2022-10-16T12:05:33;100323.69;;;27.05;39.08
50854;BME280;44154;45.506;-122.806;2022-10-16T12:08:14;100314.91;;;27.03;38.88
50854;BME280;44154;45.506;-122.806;2022-10-16T12:10:44;100329.44;;;27.04;39.26
50854;BME280;44154;45.506;-122.806;2022-10-16T12:13:34;100333.59;;;27.01;38.82
50854;BME280;44154;45.506;-122.806;2022-10-16T12:16:21;100336.63;;;26.99;39.18
50854;BME280;44154;45.506;-122.806;2022-10-16T12:18:48;100329.75;;;27.02;38.89
50854;BME280;44154;45.506;-122.806;2022-10-16T12:21:16;100327.28;;;27.00;38.80
50854;BME280;44154;45.506;-122.806;2022-10-16T12:23:52;100330.31;;;26.99;38.78
50854;BME280;44154;45.506;-122.806;2022-10-16T12:26:33;100252.00;;;26.52;39.07
50854;BME280;44154;45.506;-122.806;2022-10-16T12:32:19;100325.91;;;26.98;39.06
50854;BME280;44154;45.506;-122.806;2022-10-16T12:34:48;100326.13;;;27.07;38.56
50854;BME280;44154;45.506;-122.806;2022-10-16T12:39:49;100294.44;;;26.80;38.75
50854;BME280;44154;45.506;-122.806;2022-10-16T12:44:56;100333.34;;;26.97;38.93
50854;BME280;44154;45.506;-122.806;2022-10-16T12:49:57;100249.28;;;26.41;38.71
50854;BME280;44154;45.506;-122.806;2022-10-16T12:52:41;100337.75;;;26.93;38.89
50854;BME280;44154;45.506;-122.806;2022-10-16T12:55:17;100335.00;;;26.93;39.04
50854;BME280;44154;45.506;-122.806;2022-10-16T13:17:39;100330.91;;;26.91;38.77
50854;BME280;44154;45.506;-122.806;2022-10-16T13:28:35;100292.03;;;26.68;38.72
50854;BME280;44154;45.506;-122.806;2022-10-16T13:31:04;100344.38;;;26.87;38.71
50854;BME280;44154;45.506;-122.806;2022-10-16T13:33:39;100327.63;;;26.83;38.80
50854;BME280;44154;45.506;-122.806;2022-10-16T13:36:28;100331.75;;;26.86;38.74
50854;BME280;44154;45.506;-122.806;2022-10-16T13:39:11;100326.25;;;26.86;39.11
50854;BME280;44154;45.506;-122.806;2022-10-16T13:41:39;100277.78;;;26.56;39.04
50854;BME280;44154;45.506;-122.806;2022-10-16T13:44:13;100339.97;;;26.86;38.94
50854;BME280;44154;45.506;-122.806;2022-10-16T13:46:40;100283.03;;;26.52;38.88
50854;BME280;44154;45.506;-122.806;2022-10-16T13:49:13;100337.53;;;26.85;38.77
50854;BME280;44154;45.506;-122.806;2022-10-16T13:51:40;100336.16;;;26.82;39.00
50854;BME280;44154;45.506;-122.806;2022-10-16T13:54:09;100341.34;;;26.83;38.99
50854;BME280;44154;45.506;-122.806;2022-10-16T13:56:36;100312.59;;;26.60;38.90
50854;BME280;44154;45.506;-122.806;2022-10-16T13:59:07;100344.38;;;26.82;39.07
50854;BME280;44154;45.506;-122.806;2022-10-16T14:01:48;100340.31;;;26.79;38.77
50854;BME280;44154;45.506;-122.806;2022-10-16T14:04:15;100341.66;;;26.82;38.82
50854;BME280;44154;45.506;-122.806;2022-10-16T14:06:44;100340.84;;;26.81;38.85
50854;BME280;44154;45.506;-122.806;2022-10-16T14:09:21;100340.03;;;26.81;38.88
50854;BME280;44154;45.506;-122.806;2022-10-16T14:11:57;100305.47;;;26.64;38.96
50854;BME280;44154;45.506;-122.806;2022-10-16T14:14:24;100336.16;;;26.82;38.94
50854;BME280;44154;45.506;-122.806;2022-10-16T14:16:53;100331.78;;;26.81;39.20
50854;BME280;44154;45.506;-122.806;2022-10-16T14:19:22;100319.19;;;26.70;39.15
50854;BME280;44154;45.506;-122.806;2022-10-16T14:21:51;100306.84;;;26.62;38.91
50854;BME280;44154;45.506;-122.806;2022-10-16T14:24:30;100301.09;;;26.53;38.81
50854;BME280;44154;45.506;-122.806;2022-10-16T14:26:57;100336.72;;;26.79;39.12
50854;BME280;44154;45.506;-122.806;2022-10-16T14:29:26;100336.72;;;26.79;39.04
50854;BME280;44154;45.506;-122.806;2022-10-16T14:31:58;100335.06;;;26.78;38.63
50854;BME280;44154;45.506;-122.806;2022-10-16T14:34:31;100334.25;;;26.77;38.79
50854;BME280;44154;45.506;-122.806;2022-10-16T14:37:13;100329.84;;;26.76;38.67
50854;BME280;44154;45.506;-122.806;2022-10-16T14:39:41;100339.75;;;26.77;38.83
50854;BME280;44154;45.506;-122.806;2022-10-16T14:42:18;100323.56;;;26.71;39.09
50854;BME280;44154;45.506;-122.806;2022-10-16T14:44:46;100338.94;;;26.77;38.63
50854;BME280;44154;45.506;-122.806;2022-10-16T14:47:15;100330.69;;;26.77;38.98
50854;BME280;44154;45.506;-122.806;2022-10-16T14:49:42;100318.09;;;26.65;38.86
50854;BME280;44154;45.506;-122.806;2022-10-16T14:52:10;100313.16;;;26.62;38.89
50854;BME280;44154;45.506;-122.806;2022-10-16T14:54:37;100330.72;;;26.72;38.86
50854;BME280;44154;45.506;-122.806;2022-10-16T14:57:03;100300.03;;;26.49;38.72
50854;BME280;44154;45.506;-122.806;2022-10-16T14:59:38;100339.50;;;26.74;38.71